createdAt,value
2018-04-30T00:04:22.295Z,3.10
2018-04-30T00:09:25.397Z,2.83
2018-04-30T00:14:28.452Z,2.90
2018-04-30T00:19:33.040Z,2.97
2018-04-30T00:24:36.510Z,3.27
2018-04-30T00:29:41.116Z,3.77
2018-04-30T00:34:44.193Z,6.17
2018-04-30T00:39:49.331Z,7.53
2018-04-30T00:44:53.164Z,8.60
2018-04-30T00:49:57.011Z,9.07
2018-04-30T00:55:01.433Z,9.67
2018-04-30T01:00:04.917Z,10.90
2018-04-30T01:05:08.402Z,11.23
2018-04-30T01:10:12.257Z,12.00
2018-04-30T01:15:16.117Z,11.52
2018-04-30T01:20:19.977Z,10.60
2018-04-30T01:25:23.822Z,10.60
2018-04-30T01:30:27.702Z,11.70
2018-04-30T01:35:31.196Z,12.27
2018-04-30T01:40:35.054Z,12.70
2018-04-30T01:45:38.154Z,12.30
2018-04-30T01:50:42.387Z,12.90
2018-04-30T01:55:45.471Z,14.07
2018-04-30T02:00:48.566Z,14.63
2018-04-30T02:05:52.443Z,15.50
2018-04-30T02:10:55.530Z,15.37
2018-04-30T02:15:59.961Z,16.57
2018-04-30T02:21:04.195Z,16.37
2018-04-30T02:26:08.624Z,18.03
2018-04-30T02:31:11.709Z,18.07
2018-04-30T02:36:16.297Z,19.60
2018-04-30T02:41:19.402Z,20.67
2018-04-30T02:46:22.491Z,19.97
2018-04-30T02:51:26.712Z,19.47
2018-04-30T02:56:30.938Z,20.10
2018-04-30T03:01:34.044Z,20.80
2018-04-30T03:06:37.526Z,21.20
2018-04-30T03:11:41.044Z,21.17
2018-04-30T03:16:44.654Z,11.03
2018-04-30T03:21:48.124Z,5.53
2018-04-30T03:26:51.235Z,2.37
2018-04-30T03:31:54.316Z,1.70
2018-04-30T03:36:57.791Z,1.40
2018-04-30T03:42:00.902Z,1.20
2018-04-30T03:47:03.986Z,1.25
2018-04-30T03:52:07.885Z,1.33
2018-04-30T03:57:10.972Z,1.00
2018-04-30T04:02:31.970Z,1.12
2018-04-30T04:07:35.058Z,0.90
2018-04-30T04:12:38.954Z,0.90
2018-04-30T04:17:41.987Z,0.90
2018-04-30T04:22:45.092Z,0.83
2018-04-30T04:27:49.522Z,1.07
2018-04-30T04:32:52.609Z,1.30
2018-04-30T04:37:55.693Z,1.00
2018-04-30T04:42:58.792Z,1.20
2018-04-30T04:48:01.894Z,1.03
2018-04-30T04:53:04.999Z,1.10
2018-04-30T04:58:09.015Z,1.23
2018-04-30T05:03:13.750Z,1.20
2018-04-30T05:08:17.648Z,1.07
2018-04-30T05:13:20.726Z,1.00
2018-04-30T05:18:25.161Z,1.07
2018-04-30T05:23:28.276Z,1.00
2018-04-30T05:28:31.356Z,0.97
2018-04-30T05:33:34.451Z,1.07
2018-04-30T05:38:39.031Z,1.03
2018-04-30T05:43:42.114Z,1.00
2018-04-30T05:48:46.585Z,1.10
2018-04-30T05:53:49.659Z,1.33
2018-04-30T05:58:54.702Z,1.03
2018-04-30T06:03:58.185Z,1.00
2018-04-30T06:09:01.286Z,1.03
2018-04-30T06:14:06.103Z,0.85
2018-04-30T06:19:09.959Z,0.80
2018-04-30T06:24:14.164Z,0.70
2018-04-30T06:29:17.258Z,0.80
2018-04-30T06:34:21.700Z,0.97
2018-04-30T06:39:26.305Z,1.17
2018-04-30T06:44:29.374Z,0.97
2018-04-30T06:49:33.222Z,0.98
2018-04-30T06:54:36.305Z,1.10
2018-04-30T06:59:40.150Z,1.13
2018-04-30T07:04:44.353Z,1.00
2018-04-30T07:09:47.821Z,1.10
2018-04-30T07:14:51.336Z,1.10
2018-04-30T07:19:54.811Z,1.03
2018-04-30T07:24:58.167Z,1.20
2018-04-30T07:30:02.018Z,1.10
2018-04-30T07:35:05.495Z,1.10
2018-04-30T07:40:09.727Z,1.23
2018-04-30T07:45:12.806Z,1.20
2018-04-30T07:50:15.899Z,1.30
2018-04-30T07:55:19.617Z,0.90
2018-04-30T08:00:23.457Z,1.90
2018-04-30T08:05:26.563Z,1.47
2018-04-30T08:10:30.039Z,1.13
2018-04-30T08:15:34.646Z,0.90
2018-04-30T08:20:37.733Z,0.90
2018-04-30T08:25:41.569Z,0.87
2018-04-30T08:30:45.435Z,0.90
2018-04-30T08:35:48.899Z,0.70
2018-04-30T08:40:52.383Z,0.97
2018-04-30T08:45:55.875Z,0.90
2018-04-30T08:50:59.734Z,0.70
2018-04-30T08:56:03.656Z,0.60
2018-04-30T09:01:06.683Z,0.70
2018-04-30T09:06:09.786Z,0.70
2018-04-30T09:11:13.635Z,0.87
2018-04-30T09:16:16.746Z,0.90
2018-04-30T09:21:19.882Z,1.00
2018-04-30T09:26:24.125Z,0.70
2018-04-30T09:31:28.334Z,0.80
2018-04-30T09:36:32.591Z,0.83
2018-04-30T09:41:36.107Z,1.00
2018-04-30T09:46:39.588Z,1.07
2018-04-30T09:51:43.070Z,1.10
2018-04-30T09:56:47.516Z,1.30
2018-04-30T10:01:50.986Z,1.10
2018-04-30T10:06:54.837Z,1.00
2018-04-30T10:11:58.427Z,1.00
2018-04-30T10:17:02.294Z,0.80
2018-04-30T10:22:05.393Z,0.95
2018-04-30T10:27:08.892Z,0.90
2018-04-30T10:32:13.338Z,1.00
2018-04-30T10:37:17.185Z,0.90
2018-04-30T10:42:22.002Z,1.17
2018-04-30T10:47:25.092Z,1.27
2018-04-30T10:52:28.421Z,1.20
2018-04-30T10:57:32.839Z,1.20
2018-04-30T11:02:35.976Z,1.10
2018-04-30T11:07:39.053Z,1.20
2018-04-30T11:12:42.148Z,1.17
2018-04-30T11:17:45.632Z,0.80
2018-04-30T11:22:49.737Z,1.60
2018-04-30T11:27:54.156Z,1.00
2018-04-30T11:32:58.630Z,0.70
2018-04-30T11:38:01.727Z,1.17
2018-04-30T11:43:05.209Z,0.50
2018-04-30T11:48:09.062Z,1.00
2018-04-30T11:53:13.514Z,0.97
2018-04-30T11:58:16.623Z,0.57
2018-04-30T12:03:20.114Z,0.93
2018-04-30T12:08:23.190Z,0.80
2018-04-30T12:13:26.284Z,0.73
2018-04-30T12:18:30.162Z,0.63
2018-04-30T12:23:33.875Z,1.00
2018-04-30T12:28:38.326Z,1.10
2018-04-30T12:33:42.174Z,1.40
2018-04-30T12:38:45.279Z,1.00
2018-04-30T12:43:48.420Z,0.70
2018-04-30T12:48:52.793Z,0.60
2018-04-30T12:53:55.879Z,0.63
2018-04-30T12:59:00.946Z,0.80
2018-04-30T13:04:04.433Z,0.67
2018-04-30T13:09:07.633Z,0.70
2018-04-30T13:14:11.424Z,0.75
2018-04-30T13:19:15.879Z,1.33
2018-04-30T13:24:20.495Z,0.97
2018-04-30T13:29:24.351Z,0.83
2018-04-30T13:34:28.957Z,1.30
2018-04-30T13:39:32.446Z,0.80
2018-04-30T13:44:35.539Z,0.87
2018-04-30T13:49:38.627Z,0.90
2018-04-30T13:54:41.723Z,0.70
2018-04-30T13:59:46.170Z,0.77
2018-04-30T14:04:51.345Z,0.80
2018-04-30T14:09:55.198Z,1.40
2018-04-30T14:14:59.733Z,0.80
2018-04-30T14:20:02.820Z,1.03
2018-04-30T14:25:07.262Z,0.80
2018-04-30T14:30:10.353Z,1.20
2018-04-30T14:35:13.438Z,0.67
2018-04-30T14:40:17.665Z,0.60
2018-04-30T14:45:21.515Z,0.73
2018-04-30T14:50:24.606Z,0.60
2018-04-30T14:55:28.574Z,0.60
2018-04-30T15:00:32.059Z,0.80
2018-04-30T15:05:35.163Z,1.40
2018-04-30T15:10:39.597Z,0.60
2018-04-30T15:15:44.208Z,0.77
2018-04-30T15:20:47.299Z,0.60
2018-04-30T15:25:51.736Z,0.50
2018-04-30T15:30:54.830Z,0.70
2018-04-30T15:35:59.284Z,0.67
2018-04-30T15:41:03.108Z,0.87
2018-04-30T15:46:06.170Z,0.60
2018-04-30T15:51:09.255Z,0.70
2018-04-30T15:56:12.742Z,0.57
2018-04-30T16:01:16.983Z,0.80
2018-04-30T16:06:20.830Z,1.77
2018-04-30T16:11:25.054Z,0.43
2018-04-30T16:16:28.146Z,0.60
2018-04-30T16:21:32.593Z,0.50
2018-04-30T16:26:35.681Z,0.50
2018-04-30T16:31:38.768Z,0.80
2018-04-30T16:36:41.850Z,0.60
2018-04-30T16:41:46.286Z,0.80
2018-04-30T16:46:49.377Z,1.00
2018-04-30T16:51:54.173Z,1.00
2018-04-30T16:56:58.483Z,1.00
2018-04-30T17:02:01.580Z,0.80
2018-04-30T17:07:06.003Z,0.80
2018-04-30T17:12:09.851Z,0.57
2018-04-30T17:17:14.598Z,0.50
2018-04-30T17:22:17.696Z,0.60
2018-04-30T17:27:22.126Z,0.90
2018-04-30T17:32:25.961Z,0.70
2018-04-30T17:37:29.811Z,0.70
2018-04-30T17:42:32.903Z,0.90
2018-04-30T17:47:37.350Z,0.70
2018-04-30T17:52:41.198Z,0.70
2018-04-30T17:57:44.280Z,0.80
2018-04-30T18:02:48.982Z,0.80
2018-04-30T18:07:52.826Z,0.40
2018-04-30T18:12:56.682Z,0.60
2018-04-30T18:18:00.165Z,0.77
2018-04-30T18:23:04.006Z,0.50
2018-04-30T18:28:07.097Z,0.70
2018-04-30T18:33:11.343Z,0.63
2018-04-30T18:38:14.387Z,0.50
2018-04-30T18:43:17.577Z,0.97
2018-04-30T18:48:22.130Z,0.80
2018-04-30T18:53:25.269Z,0.53
2018-04-30T18:58:29.724Z,0.60
2018-04-30T19:03:34.095Z,0.50
2018-04-30T19:08:37.256Z,0.60
2018-04-30T19:13:40.800Z,0.70
2018-04-30T19:18:44.738Z,0.60
2018-04-30T19:23:48.590Z,0.67
2018-04-30T19:28:51.720Z,0.70
2018-04-30T19:33:55.889Z,0.60
2018-04-30T19:39:00.345Z,0.70
2018-04-30T19:44:03.822Z,0.50
2018-04-30T19:49:06.934Z,0.70
2018-04-30T19:54:10.015Z,0.70
2018-04-30T19:59:13.861Z,0.73
2018-04-30T20:04:17.718Z,0.60
2018-04-30T20:09:22.137Z,0.60
2018-04-30T20:14:26.747Z,0.50
2018-04-30T20:19:30.608Z,0.60
2018-04-30T20:24:33.689Z,0.67
2018-04-30T20:29:36.807Z,0.60
2018-04-30T20:34:39.919Z,0.75
2018-04-30T20:39:44.522Z,0.67
2018-04-30T20:44:47.618Z,1.10
2018-04-30T20:49:50.704Z,1.20
2018-04-30T20:54:54.545Z,0.90
2018-04-30T20:59:57.667Z,0.90
2018-04-30T21:05:00.765Z,0.70
2018-04-30T21:10:03.856Z,0.73
2018-04-30T21:15:08.467Z,0.90
2018-04-30T21:20:11.537Z,0.80
2018-04-30T21:25:14.629Z,0.70
2018-04-30T21:30:17.698Z,0.87
2018-04-30T21:35:22.306Z,0.87
2018-04-30T21:40:26.906Z,0.80
2018-04-30T21:45:31.486Z,0.70
2018-04-30T21:50:34.955Z,0.83
2018-04-30T21:55:38.046Z,0.80
2018-04-30T22:00:42.652Z,0.80
2018-04-30T22:05:46.017Z,0.70
2018-04-30T22:10:51.242Z,0.70
2018-04-30T22:15:55.828Z,0.90
2018-04-30T22:20:59.678Z,0.77
2018-04-30T22:26:02.755Z,0.90
2018-04-30T22:31:06.210Z,0.80
2018-04-30T22:36:10.725Z,0.80
2018-04-30T22:41:14.571Z,0.80
2018-04-30T22:46:19.007Z,0.67
2018-04-30T22:51:22.491Z,0.90
2018-04-30T22:56:26.693Z,0.67
2018-04-30T23:01:30.684Z,0.80
2018-04-30T23:06:34.526Z,0.70
2018-04-30T23:11:38.930Z,0.63
2018-04-30T23:16:42.951Z,0.70
2018-04-30T23:21:46.027Z,0.80
2018-04-30T23:26:49.099Z,0.70
2018-04-30T23:31:52.181Z,0.90
2018-04-30T23:36:57.747Z,0.80
2018-04-30T23:42:02.363Z,0.90
2018-04-30T23:47:06.208Z,0.60
2018-04-30T23:52:10.789Z,0.70
2018-04-30T23:57:13.859Z,0.80
